Time;durP1;ratioP1;P1;durP2;ratioP2;P2;SDS_P1;SDS_P2;PMS_P1;PMS_P2;Temp;Humidity;BMP_temperature;BMP_pressure;BME280_temperature;BME280_humidity;BME280_pressure;Samples;Min_cycle;Max_cycle;Signal;HPM_P1;HPM_P2
2022/02/03 00:00:44;;;;;;;7.60;3.60;;;;;;;-0.62;84.13;100280.40;88406;1271;79465;-64
2022/02/03 00:03:12;;;;;;;6.30;3.50;;;;;;;-0.59;84.07;100284.83;88296;1273;83471;-64
2022/02/03 00:05:30;;;;;;;9.40;4.60;;;;;;;-0.57;84.09;100285.19;88431;1271;99130;-64
2022/02/03 00:07:50;;;;;;;10.30;4.00;;;;;;;-0.60;84.01;100283.50;88437;1271;87586;-64
2022/02/03 00:10:25;;;;;;;19.70;5.80;;;;;;;-0.60;84.11;100284.37;88423;1271;92956;-66
2022/02/03 00:23:11;;;;;;;14.90;4.60;;;;;;;-0.89;83.79;100295.31;88118;1276;93428;-69
2022/02/03 00:25:28;;;;;;;11.00;4.90;;;;;;;-0.96;83.90;100302.91;88440;1271;81331;-65
2022/02/03 00:27:55;;;;;;;10.90;4.30;;;;;;;-1.00;83.84;100301.48;88436;1271;80789;-65
2022/02/03 00:30:10;;;;;;;8.20;3.90;;;;;;;-1.01;83.88;100310.42;88448;1271;98685;-69
2022/02/03 00:35:04;;;;;;;12.50;4.00;;;;;;;-0.91;84.14;100326.20;88426;1270;95136;-64
2022/02/03 00:37:31;;;;;;;10.90;4.00;;;;;;;-0.87;84.22;100333.49;88429;1271;77911;-64
2022/02/03 00:49:50;;;;;;;8.00;4.10;;;;;;;-0.81;84.25;100357.13;88066;1276;76417;-68
2022/02/03 00:52:02;;;;;;;11.30;5.50;;;;;;;-0.83;84.04;100363.95;88051;1276;82213;-69
2022/02/03 00:54:12;;;;;;;10.40;4.50;;;;;;;-0.84;84.25;100363.89;88049;1276;97897;-69
2022/02/03 00:56:26;;;;;;;6.20;3.60;;;;;;;-0.81;84.19;100363.48;88086;1276;87004;-63
2022/02/03 00:58:49;;;;;;;8.10;4.00;;;;;;;-0.81;84.35;100360.07;88052;1276;93593;-64
2022/02/03 01:01:03;;;;;;;7.40;3.60;;;;;;;-0.78;84.32;100366.05;88072;1276;80985;-69
2022/02/03 01:03:15;;;;;;;6.60;3.40;;;;;;;-0.75;84.36;100364.55;88074;1276;80238;-69
2022/02/03 01:05:27;;;;;;;5.90;3.30;;;;;;;-0.69;84.38;100371.56;88398;1271;96889;-63
2022/02/03 01:07:44;;;;;;;7.00;3.70;;;;;;;-0.65;84.44;100373.69;88466;1271;89458;-64
2022/02/03 01:10:05;;;;;;;7.70;4.50;;;;;;;-0.60;84.35;100376.68;88438;1271;94352;-69
2022/02/03 01:12:24;;;;;;;6.70;3.90;;;;;;;-0.54;84.45;100378.91;88443;1271;76736;-70
2022/02/03 01:14:44;;;;;;;7.30;4.00;;;;;;;-0.52;84.33;100381.91;88336;1270;82733;-68
2022/02/03 01:17:08;;;;;;;8.60;4.30;;;;;;;-0.50;84.33;100390.39;88442;1271;98615;-70
2022/02/03 01:19:40;;;;;;;8.10;4.50;;;;;;;-0.52;84.26;100396.98;88422;1271;87668;-69
2022/02/03 01:44:28;;;;;;;9.40;5.20;;;;;;;-0.45;84.53;100413.33;88433;1271;88610;-68
2022/02/03 01:46:50;;;;;;;11.10;5.40;;;;;;;-0.42;84.48;100413.67;88435;1271;95573;-69
2022/02/03 01:49:14;;;;;;;9.60;4.70;;;;;;;-0.41;84.39;100411.27;88512;1268;77445;-69
2022/02/03 01:51:44;;;;;;;9.60;5.00;;;;;;;-0.42;84.34;100415.29;88505;1267;81256;-64
2022/02/03 01:53:56;;;;;;;9.30;4.90;;;;;;;-0.44;84.31;100414.12;88488;1268;98769;-64
2022/02/03 01:56:10;;;;;;;9.00;5.20;;;;;;;-0.45;84.37;100412.43;88528;1267;88964;-68
2022/02/03 01:58:35;;;;;;;8.30;4.70;;;;;;;-0.47;84.47;100413.17;88492;1268;93223;-64
2022/02/03 02:00:59;;;;;;;9.10;4.60;;;;;;;-0.47;84.40;100420.78;88470;1271;78152;-68
2022/02/03 02:03:22;;;;;;;9.30;4.40;;;;;;;-0.44;84.52;100419.30;88494;1267;81947;-68
2022/02/03 02:05:51;;;;;;;4.70;3.30;;;;;;;-0.39;84.51;100420.33;88523;1267;97311;-68
2022/02/03 02:08:15;;;;;;;9.70;4.40;;;;;;;-0.36;84.39;100425.00;88496;1267;88151;-69
2022/02/03 02:10:54;;;;;;;9.40;4.50;;;;;;;-0.32;84.54;100428.77;88401;1271;95248;-64
2022/02/03 02:13:35;;;;;;;7.80;4.20;;;;;;;-0.25;84.47;100430.67;88504;1268;77280;-65
2022/02/03 02:16:12;;;;;;;7.00;4.50;;;;;;;-0.18;84.53;100431.56;88484;1268;82422;-69
2022/02/03 02:18:58;;;;;;;7.60;4.10;;;;;;;-0.14;84.51;100430.70;88481;1268;98536;-69
2022/02/03 02:39:00;;;;;;;9.60;5.00;;;;;;;-0.20;84.78;100461.83;88487;1267;79848;-64
2022/02/03 02:42:08;;;;;;;8.20;4.30;;;;;;;-0.15;84.75;100464.58;88526;1268;83108;-69
2022/02/03 02:44:12;;;;;;;10.00;4.50;;;;;;;-0.07;84.75;100465.70;88500;1268;97387;-68
2022/02/03 02:46:30;;;;;;;10.00;4.60;;;;;;;-0.04;84.78;100469.50;88521;1268;89336;-68
2022/02/03 02:49:08;;;;;;;9.40;4.70;;;;;;;0.00;84.82;100471.52;88487;1267;94985;-70
2022/02/03 02:51:28;;;;;;;10.60;4.90;;;;;;;0.07;84.85;100481.31;88528;1268;79005;-69
2022/02/03 02:54:08;;;;;;;10.50;5.10;;;;;;;0.07;84.79;100482.11;88475;1271;82287;-69
2022/02/03 02:56:31;;;;;;;8.70;4.80;;;;;;;0.04;84.70;100480.76;88497;1268;99239;-69
2022/02/03 02:59:08;;;;;;;8.90;4.70;;;;;;;0.01;84.81;100484.07;88498;1268;87725;-69
2022/02/03 03:31:52;;;;;;;8.30;4.80;;;;;;;-0.05;85.11;100520.80;88456;1268;81057;-68
2022/02/03 03:34:10;;;;;;;13.10;6.30;;;;;;;-0.06;85.12;100518.59;88477;1268;98584;-68
2022/02/03 03:36:21;;;;;;;9.30;5.30;;;;;;;-0.04;85.14;100524.59;88472;1267;88693;-64
2022/02/03 03:38:35;;;;;;;9.00;5.40;;;;;;;-0.08;85.24;100526.54;88507;1267;95684;-64
2022/02/03 03:40:52;;;;;;;11.40;5.60;;;;;;;-0.10;85.29;100525.27;88486;1268;79523;-64
2022/02/03 03:43:06;;;;;;;9.20;5.80;;;;;;;-0.07;85.39;100527.52;88514;1267;83549;-63
2022/02/03 03:45:16;;;;;;;11.30;5.80;;;;;;;-0.04;85.32;100526.20;88499;1267;96957;-69
2022/02/03 03:47:29;;;;;;;11.20;5.90;;;;;;;0.01;85.44;100525.45;88512;1268;87436;-69
2022/02/03 03:49:44;;;;;;;10.90;5.40;;;;;;;0.05;85.42;100521.48;88578;1268;94018;-69
2022/02/03 03:52:05;;;;;;;11.00;5.80;;;;;;;0.06;85.48;100528.21;88585;1268;78227;-70
2022/02/03 03:54:30;;;;;;;10.80;6.00;;;;;;;0.07;85.38;100538.29;88548;1268;79863;-71
2022/02/03 03:56:55;;;;;;;8.40;5.50;;;;;;;0.08;85.30;100539.27;88560;1268;99573;-70
2022/02/03 04:30:50;;;;;;;11.90;6.70;;;;;;;0.11;85.54;100572.82;88582;1268;81812;-67
2022/02/03 04:38:43;;;;;;;15.10;7.30;;;;;;;0.07;85.65;100579.70;88576;1268;90069;-68
2022/02/03 04:44:11;;;;;;;10.00;7.00;;;;;;;0.11;85.81;100580.66;88520;1268;81670;-63
2022/02/03 04:55:33;;;;;;;12.70;7.40;;;;;;;0.26;85.71;100576.58;88533;1268;95837;-66
2022/02/03 04:58:41;;;;;;;12.00;7.70;;;;;;;0.24;85.75;100575.66;88483;1271;77133;-67
2022/02/03 05:01:18;;;;;;;;;;;;;;;0.20;85.61;100577.81;88461;1268;82903;-62
2022/02/03 05:04:03;;;;;;;12.40;7.70;;;;;;;0.13;85.72;100581.69;88474;1271;98914;-62
2022/02/03 05:06:32;;;;;;;13.90;7.80;;;;;;;0.08;85.65;100586.19;88474;1268;89869;-68
2022/02/03 05:09:23;;;;;;;14.60;8.40;;;;;;;0.05;85.72;100581.98;88446;1268;94525;-67
2022/02/03 05:12:28;;;;;;;14.80;7.80;;;;;;;0.04;85.66;100580.44;88504;1271;79835;-62
2022/02/03 05:18:31;;;;;;;12.80;7.10;;;;;;;0.10;85.82;100581.08;88380;1268;99062;-62
2022/02/03 05:31:54;;;;;;;;;;;;;;;0.14;85.87;100585.67;88388;1271;77970;-68
2022/02/03 05:33:19;;;;;;;14.20;8.70;;;;;;;0.22;85.94;100586.11;88481;1271;97640;-62
2022/02/03 05:44:23;;;;;;;11.50;7.40;;;;;;;0.15;85.89;100593.45;88485;1273;83749;-67
2022/02/03 05:46:55;;;;;;;12.70;7.50;;;;;;;0.17;85.79;100593.61;88492;1271;99711;-67
2022/02/03 05:49:43;;;;;;;11.60;7.60;;;;;;;0.16;85.89;100606.77;88503;1268;86988;-67
2022/02/03 06:02:27;;;;;;;17.80;9.20;;;;;;;0.26;85.80;100624.95;88507;1268;88439;-62
2022/02/03 06:04:47;;;;;;;12.60;8.70;;;;;;;0.25;85.92;100632.44;88476;1268;93458;-63
2022/02/03 06:09:36;;;;;;;13.30;9.00;;;;;;;0.20;85.84;100633.55;88504;1269;82452;-63
2022/02/03 06:14:18;;;;;;;12.40;7.30;;;;;;;0.18;85.75;100622.21;88493;1268;87921;-67
2022/02/03 06:16:38;;;;;;;11.90;7.30;;;;;;;0.14;85.89;100631.23;88461;1268;95665;-64
2022/02/03 06:21:28;;;;;;;12.10;7.30;;;;;;;0.08;86.02;100634.70;88519;1268;83226;-67
2022/02/03 06:23:54;;;;;;;13.10;7.80;;;;;;;0.12;86.10;100637.91;88459;1271;99367;-67
2022/02/03 06:28:30;;;;;;;18.30;10.50;;;;;;;0.27;86.10;100638.69;88503;1268;93456;-62
2022/02/03 06:30:38;;;;;;;15.90;10.20;;;;;;;0.32;86.17;100642.58;88459;1271;77446;-67
2022/02/03 06:32:48;;;;;;;13.90;9.60;;;;;;;0.37;86.15;100647.30;88506;1268;83276;-67
2022/02/03 06:34:59;;;;;;;14.30;10.40;;;;;;;0.40;86.20;100650.27;88474;1268;96152;-68
2022/02/03 06:37:08;;;;;;;14.40;9.80;;;;;;;0.40;86.11;100653.09;88501;1268;89156;-67
2022/02/03 06:39:20;;;;;;;16.20;10.20;;;;;;;0.41;86.14;100654.77;88458;1268;95978;-68
2022/02/03 06:41:35;;;;;;;12.20;8.80;;;;;;;0.43;85.99;100658.51;88447;1271;79144;-63
2022/02/03 06:43:44;;;;;;;12.60;8.50;;;;;;;0.48;86.10;100658.30;88464;1268;80273;-62
2022/02/03 06:46:01;;;;;;;12.20;7.40;;;;;;;0.54;86.13;100663.47;88500;1268;98866;-67
2022/02/03 06:48:17;;;;;;;14.80;8.40;;;;;;;0.60;86.23;100667.61;88449;1271;89068;-68
2022/02/03 06:50:33;;;;;;;12.10;7.70;;;;;;;0.68;86.19;100668.11;88494;1268;95702;-67
2022/02/03 06:52:52;;;;;;;13.30;7.90;;;;;;;0.76;86.16;100667.65;88474;1268;79627;-68
2022/02/03 06:55:09;;;;;;;13.30;8.20;;;;;;;0.77;86.13;100671.45;88491;1268;82419;-63
2022/02/03 06:57:25;;;;;;;16.90;8.40;;;;;;;0.72;86.09;100676.48;88478;1268;98837;-63
2022/02/03 06:59:42;;;;;;;14.20;8.80;;;;;;;0.73;86.07;100677.09;88516;1268;88544;-63
2022/02/03 07:01:54;;;;;;;15.60;8.80;;;;;;;0.77;86.04;100675.34;88425;1271;95303;-63
2022/02/03 07:04:15;;;;;;;14.30;8.10;;;;;;;0.78;85.97;100675.98;88462;1268;79373;-63
2022/02/03 07:06:28;;;;;;;;;;;;;;;0.81;86.01;100672.04;88535;1268;82372;-63
2022/02/03 07:08:42;;;;;;;15.00;8.10;;;;;;;0.84;86.02;100667.34;88499;1268;99512;-62
2022/02/03 07:10:55;;;;;;;14.00;8.60;;;;;;;0.89;86.02;100667.80;88477;1268;87489;-62
2022/02/03 07:13:04;;;;;;;18.50;8.80;;;;;;;0.98;86.02;100676.89;88458;1268;95069;-64
2022/02/03 07:15:14;;;;;;;14.60;8.70;;;;;;;0.97;85.99;100673.77;88499;1269;79859;-67
2022/02/03 07:17:22;;;;;;;15.90;9.00;;;;;;;1.01;86.06;100673.98;88512;1268;81153;-67
2022/02/03 07:19:34;;;;;;;13.60;9.50;;;;;;;1.10;85.99;100676.06;88515;1268;99189;-64
2022/02/03 07:21:48;;;;;;;13.10;8.50;;;;;;;1.17;85.89;100677.38;88467;1268;88013;-63
2022/02/03 07:23:55;;;;;;;;;;;;;;;1.20;85.80;100678.40;88483;1268;93066;-63
2022/02/03 07:26:03;;;;;;;13.80;8.70;;;;;;;1.23;85.74;100681.61;88482;1268;78737;-66
2022/02/03 07:28:12;;;;;;;14.70;7.90;;;;;;;1.26;85.54;100686.96;88467;1268;81759;-66
2022/02/03 07:30:24;;;;;;;11.90;8.10;;;;;;;1.27;85.48;100691.35;88439;1268;97291;-65
2022/02/03 07:32:33;;;;;;;11.20;8.30;;;;;;;1.25;85.33;100691.88;88451;1268;88761;-65
2022/02/03 07:34:42;;;;;;;12.50;7.30;;;;;;;1.18;85.34;100689.77;88441;1268;95393;-63
2022/02/03 07:36:51;;;;;;;14.10;8.20;;;;;;;1.14;85.23;100695.73;88437;1268;79379;-63
2022/02/03 07:39:01;;;;;;;10.60;7.00;;;;;;;1.14;85.25;100704.14;88364;1271;81766;-62
2022/02/03 07:41:13;;;;;;;9.30;6.50;;;;;;;1.12;85.14;100706.74;88403;1271;98027;-65
2022/02/03 07:43:23;;;;;;;8.90;6.40;;;;;;;1.09;85.20;100711.26;88482;1268;87769;-65
2022/02/03 07:45:35;;;;;;;9.80;6.60;;;;;;;1.11;85.24;100710.56;88501;1268;93132;-65
2022/02/03 07:47:50;;;;;;;10.10;6.60;;;;;;;1.13;85.06;100715.35;88491;1268;76971;-64
2022/02/03 07:50:02;;;;;;;10.10;7.00;;;;;;;1.14;85.03;100717.36;88484;1268;79736;-65
2022/02/03 07:52:12;;;;;;;11.80;7.20;;;;;;;1.22;85.10;100716.05;88444;1268;96513;-64
2022/02/03 07:54:24;;;;;;;10.10;7.60;;;;;;;1.30;85.02;100714.04;88482;1268;87180;-65
2022/02/03 07:56:37;;;;;;;19.20;11.90;;;;;;;1.34;84.88;100703.71;88455;1268;93235;-64
2022/02/03 07:58:47;;;;;;;15.40;10.30;;;;;;;1.87;85.76;100701.13;88466;1268;78872;-64
2022/02/03 08:00:56;;;;;;;13.70;9.30;;;;;;;2.71;85.26;100708.70;88483;1268;79801;-64
2022/02/03 08:03:12;;;;;;;11.70;8.40;;;;;;;3.93;85.80;100702.03;88498;1268;97007;-64
2022/02/03 08:05:22;;;;;;;16.90;10.10;;;;;;;5.33;84.46;100696.98;88497;1268;88161;-63
2022/02/03 08:07:34;;;;;;;18.60;10.70;;;;;;;5.60;83.33;100694.86;88507;1268;95725;-65
2022/02/03 08:09:50;;;;;;;10.40;7.00;;;;;;;5.60;83.10;100704.25;88454;1268;78070;-65
2022/02/03 08:12:05;;;;;;;8.20;5.90;;;;;;;6.26;82.64;100701.40;88468;1268;81138;-65
2022/02/03 08:14:21;;;;;;;8.10;5.70;;;;;;;7.30;82.13;100697.44;88491;1267;98919;-65
2022/02/03 08:16:34;;;;;;;7.70;5.40;;;;;;;7.65;81.26;100695.80;88484;1268;89307;-65
2022/02/03 08:18:52;;;;;;;6.80;5.40;;;;;;;8.00;80.18;100692.92;88473;1268;93795;-66
2022/02/03 08:21:05;;;;;;;8.00;5.90;;;;;;;7.42;79.48;100696.85;88473;1268;80186;-65
2022/02/03 08:23:39;;;;;;;7.20;5.30;;;;;;;8.18;79.26;100693.29;88465;1268;81757;-67
2022/02/03 08:26:00;;;;;;;6.90;5.30;;;;;;;9.37;78.01;100688.54;88501;1268;96813;-63
2022/02/03 08:28:35;;;;;;;7.50;4.90;;;;;;;9.55;75.97;100682.79;88460;1268;89065;-64
2022/02/03 08:30:47;;;;;;;;;;;;;;;9.25;75.04;100689.69;88487;1268;95509;-68
2022/02/03 08:33:01;;;;;;;8.90;5.20;;;;;;;9.16;75.48;100687.13;88476;1268;79465;-68
2022/02/03 08:35:22;;;;;;;7.70;4.90;;;;;;;9.77;75.48;100684.36;88480;1268;82269;-68
2022/02/03 08:37:44;;;;;;;6.60;5.00;;;;;;;10.56;75.10;100693.98;88381;1271;98820;-68
2022/02/03 08:40:09;;;;;;;7.00;4.20;;;;;;;10.45;73.54;100691.02;88491;1268;89501;-65
2022/02/03 08:42:22;;;;;;;6.50;4.10;;;;;;;9.46;73.12;100697.02;88465;1268;93265;-65
2022/02/03 08:44:33;;;;;;;10.70;5.80;;;;;;;8.71;72.97;100695.67;88455;1268;78406;-65
2022/02/03 08:46:42;;;;;;;10.80;6.60;;;;;;;8.17;72.70;100694.67;88477;1267;82560;-65
2022/02/03 08:48:51;;;;;;;7.30;4.60;;;;;;;7.67;72.82;100694.52;88477;1268;97325;-65
2022/02/03 08:51:01;;;;;;;6.20;4.10;;;;;;;7.27;73.04;100701.42;88479;1268;89405;-65
2022/02/03 08:53:18;;;;;;;6.90;3.70;;;;;;;7.05;72.83;100700.36;88490;1268;94862;-65
2022/02/03 08:55:34;;;;;;;5.80;3.80;;;;;;;6.80;72.65;100701.29;88496;1268;78319;-65
2022/02/03 08:58:06;;;;;;;4.90;3.70;;;;;;;6.60;72.54;100701.38;88363;1270;82704;-65
2022/02/03 09:38:27;;;;;;;6.80;4.50;;;;;;;3.78;72.36;100692.52;85272;1313;601795;-67
2022/02/03 09:53:29;;;;;;;6.40;3.60;;;;;;;3.47;73.28;100687.05;87091;1286;76533;-70
2022/02/03 09:55:59;;;;;;;6.80;3.80;;;;;;;3.46;73.14;100690.17;87558;1286;80929;-68
2022/02/03 09:58:14;;;;;;;7.90;4.00;;;;;;;3.49;73.61;100685.90;87880;1281;97333;-74
2022/02/03 10:00:45;;;;;;;8.20;4.00;;;;;;;3.54;73.76;100683.92;87962;1281;88125;-69
2022/02/03 10:03:07;;;;;;;9.20;4.30;;;;;;;3.60;73.97;100682.13;87921;1281;94856;-69
2022/02/03 10:05:37;;;;;;;6.50;4.10;;;;;;;3.54;73.20;100677.27;87935;1281;76770;-65
2022/02/03 10:07:55;;;;;;;5.70;3.60;;;;;;;3.52;73.70;100676.91;87917;1281;81992;-73
2022/02/03 10:10:13;;;;;;;8.10;4.00;;;;;;;3.60;73.94;100678.53;87860;1283;97166;-66
2022/02/03 10:12:31;;;;;;;7.10;3.80;;;;;;;3.61;73.82;100680.08;87958;1281;88192;-65
2022/02/03 10:14:43;;;;;;;6.00;3.50;;;;;;;3.64;73.78;100682.86;87862;1283;94905;-66
2022/02/03 10:16:58;;;;;;;8.30;4.10;;;;;;;3.64;73.77;100682.80;87922;1281;76912;-65
2022/02/03 10:19:13;;;;;;;5.90;3.50;;;;;;;3.61;73.78;100683.12;88259;1274;82077;-67
2022/02/03 10:21:26;;;;;;;7.60;3.90;;;;;;;3.49;73.21;100681.14;88255;1274;99047;-70
2022/02/03 10:23:51;;;;;;;6.80;3.80;;;;;;;3.36;73.26;100683.73;88244;1273;89332;-70
2022/02/03 10:26:11;;;;;;;8.00;3.30;;;;;;;3.27;73.59;100682.80;88282;1274;95560;-64
2022/02/03 10:28:20;;;;;;;10.40;4.40;;;;;;;3.21;73.85;100681.92;88264;1274;77997;-64
2022/02/03 10:30:37;;;;;;;9.30;4.20;;;;;;;3.23;73.69;100679.61;88284;1274;83333;-69
2022/02/03 10:32:46;;;;;;;8.90;4.60;;;;;;;3.23;73.80;100675.67;88261;1274;97653;-69
2022/02/03 10:34:56;;;;;;;8.00;4.00;;;;;;;3.29;73.68;100671.80;88271;1274;89492;-66
2022/02/03 10:37:11;;;;;;;7.40;4.00;;;;;;;3.29;73.50;100673.52;88135;1277;94029;-67
2022/02/03 10:40:10;;;;;;;8.70;4.40;;;;;;;3.34;73.97;100664.50;88228;1274;78391;-67
2022/02/03 10:43:06;;;;;;;8.70;4.60;;;;;;;3.46;73.79;100665.74;88270;1274;82912;-64
2022/02/03 10:45:44;;;;;;;7.10;3.70;;;;;;;3.52;73.53;100662.88;88302;1274;96412;-63
2022/02/03 10:50:53;;;;;;;6.30;4.20;;;;;;;3.70;73.70;100656.11;88238;1274;95151;-68
2022/02/03 10:53:31;;;;;;;6.30;4.00;;;;;;;3.88;73.92;100659.97;88244;1274;76937;-68
2022/02/03 10:58:27;;;;;;;8.60;4.70;;;;;;;4.11;73.11;100661.55;88237;1274;98052;-68
2022/02/03 11:03:18;;;;;;;7.90;5.20;;;;;;;4.06;72.94;100648.50;88140;1274;95021;-67
2022/02/03 11:05:51;;;;;;;9.20;5.10;;;;;;;4.03;72.97;100643.40;88280;1274;76552;-69
2022/02/03 11:08:11;;;;;;;10.10;5.60;;;;;;;4.10;73.36;100644.02;88263;1274;80418;-71
2022/02/03 11:10:30;;;;;;;9.20;6.00;;;;;;;4.07;73.29;100643.90;88279;1274;97428;-68
2022/02/03 11:12:45;;;;;;;8.60;5.60;;;;;;;4.12;73.57;100642.58;88254;1274;87301;-68
2022/02/03 11:14:59;;;;;;;8.50;5.70;;;;;;;4.14;73.55;100639.20;88265;1274;95706;-64
2022/02/03 11:17:07;;;;;;;;;;;;;;;4.15;73.69;100639.60;88198;1274;79047;-63
2022/02/03 11:19:20;;;;;;;9.20;5.00;;;;;;;4.17;74.13;100640.85;88269;1274;82901;-63
2022/02/03 11:21:29;;;;;;;9.40;5.10;;;;;;;4.28;74.04;100639.45;88266;1274;97429;-64
2022/02/03 11:23:43;;;;;;;8.60;5.10;;;;;;;4.37;74.09;100634.48;88244;1274;88387;-63
2022/02/03 11:26:04;;;;;;;9.60;4.70;;;;;;;4.43;73.83;100634.61;88245;1274;95366;-68
2022/02/03 11:28:41;;;;;;;7.20;4.30;;;;;;;4.44;73.73;100628.65;88235;1274;78133;-70
2022/02/03 11:33:51;;;;;;;9.50;5.60;;;;;;;4.42;73.66;100624.56;88225;1274;98132;-68
2022/02/03 11:36:34;;;;;;;8.60;5.10;;;;;;;4.42;73.15;100619.88;88273;1274;89177;-69
2022/02/03 11:41:59;;;;;;;10.30;5.90;;;;;;;4.29;73.03;100625.42;87999;1280;77849;-62
2022/02/03 11:55:48;;;;;;;11.50;5.40;;;;;;;4.09;74.31;100610.05;87719;1281;97193;-68
2022/02/03 11:58:15;;;;;;;10.30;5.20;;;;;;;4.04;74.68;100613.35;87891;1281;88620;-62
2022/02/03 12:03:18;;;;;;;9.30;5.60;;;;;;;4.02;74.55;100608.17;87628;1281;77807;-64
2022/02/03 12:11:21;;;;;;;9.00;5.90;;;;;;;3.87;74.56;100607.35;87973;1280;87430;-66
2022/02/03 12:14:11;;;;;;;13.70;5.60;;;;;;;3.78;74.94;100597.83;87962;1280;95786;-70
2022/02/03 12:16:28;;;;;;;11.60;5.40;;;;;;;3.75;74.79;100604.36;87998;1280;81390;-69
2022/02/03 12:19:18;;;;;;;7.50;5.00;;;;;;;3.72;74.41;100597.89;88047;1279;82773;-64
2022/02/03 12:21:36;;;;;;;8.60;4.80;;;;;;;3.71;74.62;100592.98;88015;1280;95505;-64
2022/02/03 12:23:56;;;;;;;8.20;5.30;;;;;;;3.76;74.54;100592.70;88084;1278;90187;-68
2022/02/03 12:26:14;;;;;;;10.50;5.70;;;;;;;3.74;74.58;100590.49;88151;1276;95588;-68
2022/02/03 12:28:39;;;;;;;11.60;5.20;;;;;;;3.73;74.89;100585.85;88171;1276;79936;-64
2022/02/03 12:31:12;;;;;;;11.10;5.20;;;;;;;3.70;74.78;100585.04;88164;1276;83060;-63
2022/02/03 12:38:32;;;;;;;11.70;6.00;;;;;;;3.63;74.40;100583.86;88080;1276;96410;-64
2022/02/03 12:40:56;;;;;;;11.40;5.90;;;;;;;3.54;74.60;100587.38;88139;1276;79981;-64
2022/02/03 12:43:26;;;;;;;9.50;5.90;;;;;;;3.49;74.63;100586.65;88118;1276;82404;-66
2022/02/03 12:45:39;;;;;;;11.50;6.10;;;;;;;3.42;74.68;100585.42;88157;1276;97177;-65
2022/02/03 12:47:55;;;;;;;11.30;7.30;;;;;;;3.39;74.80;100579.66;88165;1276;86567;-64
2022/02/03 12:50:13;;;;;;;13.80;6.60;;;;;;;3.35;75.03;100576.58;88019;1278;95088;-64
2022/02/03 12:52:31;;;;;;;13.80;6.90;;;;;;;3.35;74.76;100571.83;88153;1276;78085;-66
2022/02/03 12:54:45;;;;;;;12.60;6.90;;;;;;;3.28;74.80;100571.30;88186;1276;82325;-66
2022/02/03 12:57:02;;;;;;;11.60;6.50;;;;;;;3.24;74.95;100565.98;88186;1274;98512;-64
2022/02/03 12:59:16;;;;;;;14.00;7.00;;;;;;;3.21;75.22;100565.38;88253;1275;90207;-69
2022/02/03 13:01:31;;;;;;;14.50;7.30;;;;;;;3.24;75.46;100565.40;88197;1275;94449;-69
2022/02/03 13:03:46;;;;;;;10.40;6.70;;;;;;;3.31;75.34;100558.58;88271;1274;79097;-67
2022/02/03 13:06:04;;;;;;;13.40;6.70;;;;;;;3.38;75.43;100557.20;88194;1274;80380;-69
2022/02/03 13:08:13;;;;;;;14.90;7.40;;;;;;;3.37;75.63;100552.98;88218;1274;98569;-64
2022/02/03 13:10:27;;;;;;;19.30;8.20;;;;;;;3.45;75.59;100554.62;88209;1274;89045;-65
2022/02/03 13:12:48;;;;;;;15.60;8.50;;;;;;;3.50;75.53;100553.23;88193;1275;93754;-63
2022/02/03 13:15:00;;;;;;;14.20;8.00;;;;;;;3.52;75.33;100557.83;88200;1275;77167;-65
2022/02/03 13:17:14;;;;;;;17.30;8.70;;;;;;;3.47;75.42;100562.40;88208;1274;81420;-65
2022/02/03 13:19:36;;;;;;;18.20;9.00;;;;;;;3.45;75.76;100567.23;88207;1274;96378;-62
2022/02/03 13:21:58;;;;;;;15.00;9.30;;;;;;;3.46;75.68;100565.23;88206;1274;88606;-63
2022/02/03 13:24:29;;;;;;;16.20;9.80;;;;;;;3.43;75.76;100570.98;88193;1275;93807;-64
2022/02/03 13:26:43;;;;;;;15.80;10.00;;;;;;;3.42;75.90;100568.36;88190;1274;77192;-64
2022/02/03 13:29:04;;;;;;;13.50;9.40;;;;;;;3.37;75.90;100567.94;88219;1276;80512;-63
2022/02/03 13:31:22;;;;;;;18.10;10.30;;;;;;;3.31;75.86;100573.35;88193;1275;97460;-64
2022/02/03 13:33:39;;;;;;;17.70;10.60;;;;;;;3.26;76.13;100570.04;88188;1275;88993;-64
2022/02/03 13:35:55;;;;;;;16.60;9.60;;;;;;;3.27;76.32;100572.29;88200;1274;95190;-64
2022/02/03 13:38:19;;;;;;;17.20;9.80;;;;;;;3.25;76.52;100571.73;88200;1274;80626;-71
2022/02/03 13:40:32;;;;;;;24.00;10.40;;;;;;;3.27;76.86;100571.93;88392;1270;82756;-70
2022/02/03 13:42:47;;;;;;;15.80;10.60;;;;;;;3.24;77.17;100572.92;88445;1270;98010;-73
2022/02/03 13:45:09;;;;;;;14.90;10.00;;;;;;;3.22;77.35;100576.46;88428;1270;86757;-70
2022/02/03 13:47:28;;;;;;;18.40;10.60;;;;;;;3.20;77.45;100577.50;88392;1270;94914;-72
2022/02/03 13:49:42;;;;;;;17.50;11.30;;;;;;;3.22;77.41;100576.77;88393;1270;77416;-63
2022/02/03 13:51:59;;;;;;;;;;;;;;;3.17;77.60;100576.89;88415;1270;82088;-63
2022/02/03 14:15:15;;;;;;;16.00;10.70;;;;;;;3.17;78.54;100557.88;88393;1270;79991;-65
2022/02/03 14:20:34;;;;;;;22.40;12.10;;;;;;;3.15;78.68;100560.73;88233;1270;98216;-65
2022/02/03 14:23:00;;;;;;;18.70;11.00;;;;;;;3.05;78.82;100562.39;88287;1271;88346;-66
2022/02/03 14:27:36;;;;;;;22.00;12.50;;;;;;;2.84;79.04;100566.86;88255;1273;81930;-66
2022/02/03 14:29:49;;;;;;;19.10;12.40;;;;;;;2.83;79.16;100565.59;88422;1270;80001;-68
2022/02/03 14:32:02;;;;;;;20.60;12.20;;;;;;;2.81;79.26;100563.24;88391;1270;97233;-68
2022/02/03 14:34:14;;;;;;;;;;;;;;;2.80;79.27;100562.80;88440;1270;89075;-63
2022/02/03 14:36:29;;;;;;;19.80;12.50;;;;;;;2.77;79.52;100560.45;88400;1270;94881;-63
2022/02/03 14:38:49;;;;;;;19.40;12.30;;;;;;;2.75;79.64;100556.14;88380;1270;78582;-65
2022/02/03 14:41:10;;;;;;;18.20;11.80;;;;;;;2.74;79.92;100549.50;88400;1270;79933;-65
2022/02/03 14:43:19;;;;;;;20.60;12.90;;;;;;;2.75;79.99;100547.08;88384;1270;97778;-67
2022/02/03 14:45:34;;;;;;;25.80;14.40;;;;;;;2.77;79.96;100547.61;88408;1271;87771;-66
2022/02/03 14:47:46;;;;;;;20.90;13.20;;;;;;;2.79;80.10;100547.94;88230;1272;92750;-67
2022/02/03 14:50:03;;;;;;;26.60;16.30;;;;;;;2.77;80.14;100544.29;88280;1271;79611;-67
2022/02/03 14:52:28;;;;;;;22.70;14.40;;;;;;;2.77;80.13;100546.17;88432;1270;80899;-66
2022/02/03 14:58:23;;;;;;;24.00;14.40;;;;;;;2.62;80.40;100536.48;88418;1270;88614;-67
2022/02/03 15:00:33;;;;;;;23.70;13.50;;;;;;;2.56;80.39;100534.91;88385;1270;93430;-68
2022/02/03 15:02:44;;;;;;;24.30;13.60;;;;;;;2.53;80.58;100541.26;88306;1271;79380;-64
2022/02/03 15:04:55;;;;;;;23.70;12.50;;;;;;;2.49;80.64;100539.80;88323;1271;82436;-67
2022/02/03 15:07:08;;;;;;;23.60;12.40;;;;;;;2.44;80.87;100542.90;88425;1270;96746;-64
2022/02/03 15:09:31;;;;;;;25.90;13.90;;;;;;;2.46;80.89;100541.48;88372;1270;89219;-65
2022/02/03 15:12:03;;;;;;;21.00;12.70;;;;;;;2.48;80.88;100539.75;88415;1270;95395;-65
2022/02/03 15:14:28;;;;;;;23.60;12.90;;;;;;;2.39;81.11;100537.88;88207;1274;81431;-67
2022/02/03 15:16:37;;;;;;;20.30;12.10;;;;;;;2.37;81.36;100538.74;88457;1270;81959;-67
2022/02/03 15:18:48;;;;;;;21.70;12.70;;;;;;;2.38;81.35;100537.71;88424;1270;94887;-66
2022/02/03 15:20:59;;;;;;;23.70;13.20;;;;;;;2.41;81.25;100537.48;88408;1270;88469;-67
2022/02/03 15:23:10;;;;;;;22.40;14.10;;;;;;;2.42;81.28;100536.55;88392;1270;91804;-67
2022/02/03 15:25:21;;;;;;;22.90;14.20;;;;;;;2.40;81.41;100535.42;88384;1270;78897;-65
2022/02/03 15:27:31;;;;;;;33.30;15.30;;;;;;;2.40;81.33;100533.45;88420;1270;80436;-68
2022/02/03 15:29:44;;;;;;;22.90;15.00;;;;;;;2.37;81.43;100533.24;88385;1270;96860;-68
2022/02/03 15:31:58;;;;;;;23.60;13.40;;;;;;;2.33;81.46;100536.37;88276;1271;88765;-66
2022/02/03 15:34:10;;;;;;;19.70;13.70;;;;;;;2.30;81.55;100536.27;88392;1270;94476;-67
2022/02/03 15:36:22;;;;;;;24.70;13.40;;;;;;;2.31;81.65;100535.91;88375;1270;78944;-68
2022/02/03 15:38:37;;;;;;;21.90;14.00;;;;;;;2.26;81.70;100536.13;88402;1270;80800;-68
2022/02/03 15:40:49;;;;;;;23.20;12.90;;;;;;;2.31;81.73;100537.63;88432;1271;97383;-65
2022/02/03 15:43:04;;;;;;;167.70;93.90;;;;;;;2.33;81.78;100539.07;88398;1270;89209;-65
2022/02/03 15:45:14;;;;;;;50.30;29.40;;;;;;;2.37;81.83;100533.75;88365;1271;94223;-68
2022/02/03 15:47:30;;;;;;;26.90;15.80;;;;;;;2.41;81.83;100535.36;88407;1271;76870;-65
2022/02/03 15:50:15;;;;;;;22.10;13.20;;;;;;;2.39;81.78;100532.14;88283;1271;83021;-65
2022/02/03 15:58:42;;;;;;;24.20;14.50;;;;;;;2.29;81.96;100521.85;88386;1271;96248;-69
2022/02/03 16:03:22;;;;;;;24.00;13.60;;;;;;;2.22;82.08;100515.68;88179;1274;81849;-65